Etusivu
METAR-TAF:

METAR-TAF

Lentoasemat :

Tanegashima, Japani

Leveyspiiri: 30-33N, Pituuspiiri: 130-57E, korkeus merenpinnasta: 92 m

Tämänhetkinen sää

Tämä raportti tehtiin 29 minuuttia sitten, kello 08.43 UTC
Tuuli 24 kn lännestä puuskistuen 37 kn:hen
Lämpötila 6°C
Kosteus 81%
Ilmanpaine 1015 hPa
Näkyvyys: 3000 m
Muutamia pilviä 500 ft:n korkeudessa
Hajanaisia pilviä 1000 ft:n korkeudessa
Hajonneita pilviä 2000 ft:n korkeudessa
(heikkoa) kuurosateita, pikkurakeita tai lumirakeita, utua

METAR: RJFG 170843Z 28024G37KT 3000 -SHGS BR FEW005 SCT010 BKN020 06/03 Q1015 RMK 1ST005 3CU010 5CU020 A2997 SMALL HAIL

Aika: 18:12 (09:12 UTC)


TAF: puuttuu

Säähavainnot ja -ennusteet yli 4000 lentoasemalta (METAR- ja TAF-raportit).

Käytössä olevat sääasemat on merkitty karttaan keltaisilla ja punaisilla pisteillä.

Aseta hiiri pisteen päälle nähdäksesi sääaseman nimen.

Klikkaa sitten nähdäksesi säähavainnot ja -ennusteet.

Kartan vaihtaminen: klikkaa mustalla rastilla varustettuja vihreitä pisteitä, niin voit zoomata sisään; viivalla varustettua vihreää pistettä, niin voit zoomata ulos tai vihreitä nuolia, niin pääset viereisille kartoille.


METAR-TAF: